Portada
METAR-TAF:

METAR-TAF

Aeroports :

Koné, Nova Caledònia

latitud: 21-03-12S, longitud: 164-50-18E, altitud: 7 m

METAR: manca

Hora: 05:48 (18:48 UTC)

Pronòstic

L'informe es va fer fa 1 hora i 48 minuts, a les 17:00 UTC
Pronòstic vàlid del 26 a les 18 UTC al 27 a les 18 UTC
Vent 2 kt amb direcció variable
Visibilitat 10 km o més
Núvols disperses a una alçada de 3000 ft
Núvols disperses a una alçada de 6000 ft
Probabilitat 30% :
Temporalment
l' 26 a les 18 UTC al 26 a les 21 UTC
Visibilitat: 4000 m
Cel ennuvolat a una alçada de 1400 ft
Escasses núvols a una alçada de 2500 ft, Cumulus congestus.
xàfecs de pluja
Evolucionant progressivament
l' 26 a les 23 UTC al 27 a les 01 UTC
Vent 10 kt del Sud/Sud-Oest

TAF: NWWD 261700Z 2618/2718 VRB02KT 9999 SCT030 SCT060 PROB30 TEMPO 2618/2621 4000 SHRA BKN014 FEW025TCU BECMG 2623/2701 21010KT

Observacions i pronòstics meteorològics de més de 4000 aeroports (METAR i TAF).

Les estacions disponibles són els punts grocs i vermells al mapa.

Posi el ratolí al punt desitjat per veure el nom de l'estació.

Feu clic per veure les observacions i els pronòstics meteorològics.

Per canviar el mapa: feu clic els botons verds amb una creu de color negre per apropar; al botó verd amb un guió per allunyar la imatge; o en les fletxes verdes per a mapes adjacents.


METAR-TAF: